Time;durP1;ratioP1;P1;durP2;ratioP2;P2;SDS_P1;SDS_P2;PMS_P1;PMS_P2;Temp;Humidity;BMP_temperature;BMP_pressure;BME280_temperature;BME280_humidity;BME280_pressure;Samples;Min_cycle;Max_cycle;Signal;HPM_P1;HPM_P2
2022/11/14 00:02:34;;;;;;;14.03;11.83;;;9.00;99.90;;;;;;1917720;73;21093;-82
2022/11/14 00:05:46;;;;;;;13.38;11.33;;;9.00;99.90;;;;;;1930346;73;21256;-82
2022/11/14 00:08:55;;;;;;;13.93;11.63;;;9.00;99.90;;;;;;1925459;73;21212;-81
2022/11/14 00:12:05;;;;;;;14.87;11.53;;;9.10;99.90;;;;;;1931674;73;21137;-81
2022/11/14 00:15:15;;;;;;;14.68;11.85;;;9.00;99.90;;;;;;1916954;75;21109;-83
2022/11/14 00:18:24;;;;;;;16.67;11.95;;;9.00;99.90;;;;;;1923192;73;21098;-82
2022/11/14 00:21:34;;;;;;;14.35;11.53;;;9.10;99.90;;;;;;1920377;73;21102;-82
2022/11/14 00:24:43;;;;;;;14.07;11.15;;;9.00;99.90;;;;;;1917084;73;21093;-82
2022/11/14 00:27:53;;;;;;;14.03;11.48;;;9.10;99.90;;;;;;1920440;73;21564;-81
2022/11/14 00:31:02;;;;;;;15.25;11.03;;;9.20;99.90;;;;;;1925671;73;21522;-81
2022/11/14 00:34:11;;;;;;;13.62;11.53;;;9.10;99.90;;;;;;1916990;73;21369;-83
2022/11/14 00:37:21;;;;;;;16.20;11.83;;;9.10;99.90;;;;;;1918107;73;21091;-81
2022/11/14 00:40:30;;;;;;;14.13;11.28;;;9.10;99.90;;;;;;1916918;73;21335;-81
2022/11/14 00:43:40;;;;;;;13.75;10.45;;;9.10;99.90;;;;;;1917006;75;21108;-81
2022/11/14 00:46:49;;;;;;;16.27;10.90;;;9.10;99.90;;;;;;1927451;73;21597;-81
2022/11/14 00:49:58;;;;;;;12.82;10.43;;;9.10;99.90;;;;;;1920000;73;21099;-82
2022/11/14 00:55:48;;;;;;;16.37;11.83;;;9.00;99.90;;;;;;1936618;72;22197;-82
2022/11/14 00:58:57;;;;;;;15.00;11.95;;;8.90;99.90;;;;;;1892890;75;21079;-81
2022/11/14 01:02:07;;;;;;;13.88;11.00;;;9.00;99.90;;;;;;1879445;75;21522;-81
2022/11/14 01:10:41;;;;;;;15.25;11.63;;;9.00;99.90;;;;;;1930714;72;22221;-82
2022/11/14 01:13:50;;;;;;;13.50;11.53;;;9.00;99.90;;;;;;1877774;75;21126;-82
2022/11/14 01:17:00;;;;;;;13.98;11.00;;;9.10;99.90;;;;;;1888486;75;21173;-82
2022/11/14 01:28:11;;;;;;;16.17;10.82;;;9.20;99.90;;;;;;1947284;72;22271;-83
2022/11/14 01:31:22;;;;;;;14.87;10.70;;;9.20;99.90;;;;;;1911273;74;21094;-81
2022/11/14 01:34:32;;;;;;;12.95;10.70;;;9.20;99.90;;;;;;1905011;75;21156;-82
2022/11/14 01:37:43;;;;;;;14.75;10.70;;;9.30;99.90;;;;;;1926197;74;21055;-82
2022/11/14 01:43:33;;;;;;;12.23;10.13;;;9.30;99.90;;;;;;1923540;72;22287;-80
2022/11/14 01:49:25;;;;;;;13.55;11.05;;;9.30;99.90;;;;;;1965862;72;22697;-83
2022/11/14 01:52:40;;;;;;;14.15;11.20;;;9.30;99.90;;;;;;1911247;74;21568;-82
2022/11/14 01:58:36;;;;;;;11.63;9.93;;;9.40;99.90;;;;;;1956923;72;22200;-80
2022/11/14 02:04:33;;;;;;;14.58;9.73;;;9.50;99.90;;;;;;1937277;72;22197;-82
2022/11/14 02:13:09;;;;;;;11.38;9.03;;;9.70;99.90;;;;;;1947291;72;22210;-81
2022/11/14 02:16:18;;;;;;;11.50;8.68;;;9.80;99.90;;;;;;1916088;74;21237;-82
2022/11/14 02:19:40;;;;;;;10.90;9.08;;;9.80;99.90;;;;;;1917238;73;21092;-82
2022/11/14 02:28:11;;;;;;;9.43;7.97;;;9.90;99.90;;;;;;1945735;72;22270;-80
2022/11/14 02:31:20;;;;;;;10.00;7.83;;;9.90;99.90;;;;;;1920764;74;21091;-82
2022/11/14 02:34:29;;;;;;;12.78;8.38;;;9.80;99.90;;;;;;1912229;74;21180;-81
2022/11/14 02:37:39;;;;;;;11.73;8.40;;;9.90;99.90;;;;;;1933196;74;21090;-81
2022/11/14 02:43:27;;;;;;;9.63;8.13;;;9.80;99.90;;;;;;1939670;72;22129;-83
2022/11/14 02:46:36;;;;;;;10.18;8.68;;;9.80;99.90;;;;;;1903810;75;21107;-81
2022/11/14 02:49:46;;;;;;;13.00;9.40;;;9.80;99.90;;;;;;1883866;75;21102;-82
2022/11/14 02:52:55;;;;;;;10.05;8.03;;;9.70;99.90;;;;;;1891919;75;21114;-82
2022/11/14 02:56:07;;;;;;;10.23;8.33;;;9.70;99.90;;;;;;1895922;75;21125;-82
2022/11/14 02:59:16;;;;;;;10.70;8.88;;;9.60;99.90;;;;;;1896080;75;21096;-81
2022/11/14 03:02:26;;;;;;;11.80;8.15;;;9.60;99.90;;;;;;1915368;75;21700;-81
2022/11/14 03:05:35;;;;;;;11.97;9.13;;;9.60;99.90;;;;;;1884199;75;21176;-82
2022/11/14 03:08:45;;;;;;;10.95;7.83;;;9.60;99.90;;;;;;1896911;75;21164;-81
2022/11/14 03:14:33;;;;;;;12.33;8.85;;;9.70;99.90;;;;;;1936292;72;22177;-81
2022/11/14 03:17:42;;;;;;;10.08;8.58;;;9.70;99.90;;;;;;1907914;74;21056;-82
2022/11/14 03:20:51;;;;;;;12.10;8.75;;;9.70;99.90;;;;;;1907640;74;21036;-81
2022/11/14 03:24:01;;;;;;;11.60;8.55;;;9.70;99.90;;;;;;1907501;74;21128;-81
2022/11/14 03:27:10;;;;;;;9.68;8.30;;;9.70;99.90;;;;;;1909262;74;21592;-81
2022/11/14 03:32:59;;;;;;;10.60;8.40;;;9.60;99.90;;;;;;1942384;72;22166;-81
2022/11/14 03:36:11;;;;;;;11.00;8.38;;;9.60;99.90;;;;;;1924776;73;21168;-83
2022/11/14 03:39:21;;;;;;;9.95;8.20;;;9.60;99.90;;;;;;1928743;73;21120;-82
2022/11/14 03:42:31;;;;;;;11.78;8.80;;;9.60;99.90;;;;;;1926820;73;21151;-81
2022/11/14 03:48:20;;;;;;;10.82;8.95;;;9.70;99.90;;;;;;1945439;72;22236;-80
2022/11/14 03:51:30;;;;;;;11.20;8.88;;;9.80;99.90;;;;;;1919263;74;21160;-81
2022/11/14 03:54:39;;;;;;;10.40;8.23;;;9.80;99.90;;;;;;1904556;74;21083;-81
2022/11/14 03:57:49;;;;;;;9.83;7.42;;;9.80;99.90;;;;;;1918290;74;21184;-80
2022/11/14 04:00:58;;;;;;;10.80;8.15;;;9.90;99.90;;;;;;1914657;74;21114;-81
2022/11/14 04:04:11;;;;;;;10.38;7.92;;;9.80;99.90;;;;;;1918074;74;21059;-81
2022/11/14 04:07:21;;;;;;;8.30;7.50;;;9.80;99.90;;;;;;1923992;74;21172;-81
2022/11/14 04:10:30;;;;;;;10.18;7.87;;;9.80;99.90;;;;;;1907731;74;21179;-81
2022/11/14 04:13:40;;;;;;;10.32;7.97;;;9.70;99.90;;;;;;1904627;74;21187;-81
2022/11/14 04:16:49;;;;;;;8.85;7.67;;;9.70;99.90;;;;;;1906266;74;21145;-82
2022/11/14 04:19:59;;;;;;;9.70;7.70;;;9.70;99.90;;;;;;1907556;74;21134;-82
2022/11/14 04:25:54;;;;;;;11.78;8.50;;;9.60;99.90;;;;;;1945836;72;22225;-81
2022/11/14 04:29:03;;;;;;;11.20;8.35;;;9.70;99.90;;;;;;1925247;73;21156;-82
2022/11/14 04:32:13;;;;;;;11.83;8.08;;;9.70;99.90;;;;;;1932823;73;21094;-81
2022/11/14 04:38:03;;;;;;;10.95;8.88;;;9.70;99.90;;;;;;1924626;72;22193;-82
2022/11/14 04:41:12;;;;;;;10.93;8.28;;;9.70;99.90;;;;;;1896701;74;21113;-82
2022/11/14 04:47:01;;;;;;;9.98;7.90;;;9.60;99.90;;;;;;1940871;72;22307;-82
2022/11/14 04:52:53;;;;;;;11.20;8.15;;;9.60;99.90;;;;;;1933442;72;22193;-81
2022/11/14 04:58:44;;;;;;;11.30;8.65;;;9.80;99.90;;;;;;1936342;72;22289;-83
2022/11/14 05:01:53;;;;;;;11.03;8.05;;;9.80;99.90;;;;;;1911425;75;21360;-81
2022/11/14 05:05:03;;;;;;;8.85;7.65;;;9.80;99.90;;;;;;1897340;75;21083;-83
2022/11/14 05:08:13;;;;;;;13.75;8.45;;;9.90;99.90;;;;;;1900514;75;21085;-82
2022/11/14 05:11:23;;;;;;;10.40;7.92;;;9.90;99.90;;;;;;1893061;75;21055;-82
2022/11/14 05:14:33;;;;;;;9.83;7.87;;;10.00;99.90;;;;;;1895737;75;21087;-81
2022/11/14 05:17:43;;;;;;;11.40;7.95;;;10.00;99.90;;;;;;1906653;75;21055;-82
2022/11/14 05:23:35;;;;;;;10.45;7.62;;;10.00;99.90;;;;;;1940036;72;22252;-82
2022/11/14 05:26:44;;;;;;;8.95;7.60;;;10.00;99.90;;;;;;1879444;75;21488;-82
2022/11/14 05:29:54;;;;;;;9.08;7.58;;;10.10;99.90;;;;;;1872622;75;21109;-81
2022/11/14 05:33:03;;;;;;;8.93;7.22;;;10.00;99.90;;;;;;1881392;75;21106;-81
2022/11/14 05:38:56;;;;;;;9.88;7.08;;;9.90;99.90;;;;;;1926475;72;22252;-80
2022/11/14 05:42:06;;;;;;;9.60;7.47;;;9.90;99.90;;;;;;1907201;75;21113;-81
2022/11/14 05:45:15;;;;;;;10.58;7.00;;;9.90;99.90;;;;;;1896580;75;21142;-81
2022/11/14 05:48:25;;;;;;;10.70;7.00;;;9.80;99.90;;;;;;1892517;75;21171;-81
2022/11/14 05:51:34;;;;;;;9.78;6.97;;;9.80;99.90;;;;;;1894866;75;21164;-81
2022/11/14 05:54:43;;;;;;;8.20;7.30;;;9.80;99.90;;;;;;1898219;73;21082;-81
2022/11/14 05:57:53;;;;;;;8.95;6.62;;;9.90;99.90;;;;;;1897079;75;21102;-80
2022/11/14 06:01:07;;;;;;;9.88;6.00;;;9.90;99.90;;;;;;1913346;73;21053;-81
2022/11/14 06:04:17;;;;;;;10.18;7.40;;;9.90;99.90;;;;;;1900477;75;21517;-81
2022/11/14 06:07:26;;;;;;;9.65;6.40;;;10.00;99.90;;;;;;1890762;73;21189;-81
2022/11/14 06:10:37;;;;;;;7.50;6.33;;;10.00;99.90;;;;;;1892744;75;21106;-81
2022/11/14 06:13:47;;;;;;;11.25;6.62;;;10.00;99.90;;;;;;1906729;74;21106;-81
2022/11/14 06:16:56;;;;;;;8.20;6.30;;;10.00;99.90;;;;;;1903613;75;21197;-81
2022/11/14 06:20:08;;;;;;;9.03;5.90;;;10.00;99.90;;;;;;1899450;75;21115;-81
2022/11/14 06:23:17;;;;;;;8.45;5.90;;;10.00;99.90;;;;;;1881850;75;21082;-81
2022/11/14 06:29:07;;;;;;;9.15;5.92;;;10.00;99.90;;;;;;1951264;72;22248;-82
2022/11/14 06:32:17;;;;;;;7.45;6.30;;;10.00;99.90;;;;;;1910763;74;21046;-81
2022/11/14 06:35:27;;;;;;;10.43;6.30;;;10.00;99.90;;;;;;1901728;74;21126;-81
2022/11/14 06:38:38;;;;;;;9.40;6.53;;;10.10;99.90;;;;;;1902041;75;21090;-82
2022/11/14 06:41:48;;;;;;;7.83;5.55;;;10.00;99.90;;;;;;1870984;74;21115;-81
2022/11/14 06:44:58;;;;;;;11.80;7.10;;;10.10;99.90;;;;;;1904488;75;21148;-81
2022/11/14 06:48:08;;;;;;;8.58;6.75;;;10.10;99.90;;;;;;1922324;73;21132;-91
2022/11/14 06:51:19;;;;;;;8.63;6.75;;;10.10;99.90;;;;;;1913476;74;21101;-89
2022/11/14 06:54:28;;;;;;;10.38;7.03;;;10.10;99.90;;;;;;1903863;73;21095;-89
2022/11/14 06:57:38;;;;;;;8.58;6.55;;;10.10;99.90;;;;;;1904997;74;21118;-89
2022/11/14 07:00:47;;;;;;;10.53;7.60;;;10.10;99.90;;;;;;1901590;75;21196;-90
2022/11/14 07:03:59;;;;;;;8.80;7.62;;;10.10;99.90;;;;;;1920584;74;21068;-90
2022/11/14 07:07:08;;;;;;;8.23;6.90;;;10.10;99.90;;;;;;1907388;74;21092;-91
2022/11/14 07:13:30;;;;;;;10.35;7.50;;;10.20;99.90;;;;;;1992525;71;22297;-91
2022/11/14 07:19:19;;;;;;;7.62;6.83;;;10.20;99.90;;;;;;1949501;72;22184;-91
2022/11/14 07:22:28;;;;;;;14.45;7.28;;;10.20;99.90;;;;;;1912135;74;21062;-90
2022/11/14 07:25:37;;;;;;;11.57;8.28;;;10.20;99.90;;;;;;1916682;74;21160;-90
2022/11/14 07:28:47;;;;;;;10.23;7.85;;;10.20;99.90;;;;;;1904699;75;21160;-89
2022/11/14 07:34:43;;;;;;;13.45;8.23;;;10.20;99.90;;;;;;1954274;72;22147;-89
2022/11/14 07:37:56;;;;;;;12.30;8.28;;;10.30;99.90;;;;;;1912253;75;21100;-91
2022/11/14 07:43:57;;;;;;;15.08;7.85;;;10.40;99.90;;;;;;1946971;72;22217;-90
2022/11/14 07:49:45;;;;;;;12.88;7.75;;;10.40;99.90;;;;;;1910624;72;22282;-91
2022/11/14 07:52:57;;;;;;;11.93;7.65;;;10.40;99.90;;;;;;1897250;75;21074;-91
2022/11/14 07:56:09;;;;;;;14.55;7.92;;;10.40;99.90;;;;;;1884934;75;21078;-90
2022/11/14 07:59:21;;;;;;;12.28;7.22;;;10.50;99.90;;;;;;1895869;75;21082;-91
2022/11/14 08:02:31;;;;;;;11.93;6.80;;;10.50;99.90;;;;;;1900333;74;21127;-91
2022/11/14 08:05:41;;;;;;;9.28;6.65;;;10.50;99.90;;;;;;1880504;75;21464;-90
2022/11/14 08:08:51;;;;;;;12.18;6.53;;;10.60;99.90;;;;;;1887600;74;21095;-89
2022/11/14 08:15:00;;;;;;;9.28;6.90;;;10.70;99.90;;;;;;1945288;72;22310;-91
2022/11/14 08:18:09;;;;;;;12.47;7.37;;;10.90;99.90;;;;;;1917616;74;21149;-90
2022/11/14 08:24:10;;;;;;;12.60;7.22;;;11.00;99.90;;;;;;1959878;72;22712;-91
2022/11/14 08:27:20;;;;;;;15.23;7.42;;;11.10;99.90;;;;;;1909595;73;21086;-89
2022/11/14 08:33:13;;;;;;;12.75;8.23;;;11.30;99.90;;;;;;1949792;72;22179;-90
2022/11/14 08:39:14;;;;;;;15.28;5.83;;;11.30;99.90;;;;;;1927752;72;22315;-87
2022/11/14 08:45:12;;;;;;;14.90;6.50;;;11.20;99.90;;;;;;1942096;72;22486;-91
2022/11/14 08:48:23;;;;;;;15.58;6.87;;;11.20;99.90;;;;;;1893507;75;21546;-90
2022/11/14 08:54:18;;;;;;;13.65;6.75;;;11.20;99.90;;;;;;1938857;72;22071;-90
2022/11/14 08:57:29;;;;;;;11.00;6.30;;;11.40;99.90;;;;;;1905285;74;21122;-89
2022/11/14 09:00:38;;;;;;;14.47;6.87;;;11.40;99.90;;;;;;1902304;74;21155;-91
2022/11/14 09:03:48;;;;;;;11.22;7.05;;;11.50;99.90;;;;;;1908290;74;21073;-90
2022/11/14 09:07:03;;;;;;;11.35;7.45;;;11.60;99.90;;;;;;1902748;75;21160;-89
2022/11/14 09:10:13;;;;;;;13.00;6.72;;;11.70;99.90;;;;;;1902427;75;21109;-92
2022/11/14 09:13:23;;;;;;;10.45;6.40;;;11.70;99.90;;;;;;1930847;74;21238;-91
2022/11/14 09:16:32;;;;;;;10.32;6.33;;;11.80;99.90;;;;;;1909928;73;21083;-90
2022/11/14 09:35:58;;;;;;;11.15;7.50;;;12.40;99.90;;;;;;1918216;72;28120;-92
2022/11/14 09:39:07;;;;;;;13.75;6.10;;;12.70;99.90;;;;;;1910172;75;21098;-91
2022/11/14 09:42:34;;;;;;;10.28;6.15;;;12.60;99.90;;;;;;1897791;75;21082;-90
2022/11/14 09:48:24;;;;;;;9.15;5.62;;;12.60;99.90;;;;;;1944176;72;22224;-89
2022/11/14 09:51:37;;;;;;;13.78;6.33;;;12.70;99.90;;;;;;1904683;75;21082;-90
2022/11/14 09:54:50;;;;;;;12.68;5.62;;;12.70;99.90;;;;;;1910056;75;21240;-91
2022/11/14 09:58:01;;;;;;;11.43;5.85;;;12.70;99.90;;;;;;1881836;75;21266;-91
2022/11/14 10:15:16;;;;;;;11.35;5.92;;;12.80;99.90;;;;;;1911608;72;22152;-91
2022/11/14 10:18:41;;;;;;;11.68;6.15;;;13.30;99.90;;;;;;1926468;74;21213;-90
2022/11/14 10:22:04;;;;;;;13.55;6.30;;;13.30;99.90;;;;;;1904525;75;21122;-90
2022/11/14 10:25:24;;;;;;;11.43;6.72;;;13.40;99.90;;;;;;1926375;74;21087;-91
2022/11/14 10:28:44;;;;;;;12.10;5.65;;;13.50;99.90;;;;;;1904414;75;21131;-90
2022/11/14 10:34:50;;;;;;;13.30;6.30;;;13.60;99.90;;;;;;1936601;72;22205;-91
2022/11/14 10:40:48;;;;;;;10.80;6.58;;;13.60;99.90;;;;;;1914932;72;28153;-91
2022/11/14 10:43:58;;;;;;;13.08;6.03;;;13.80;99.90;;;;;;1896573;74;21183;-92
2022/11/14 10:47:12;;;;;;;9.78;5.40;;;13.70;99.90;;;;;;1880972;75;21199;-89
2022/11/14 10:53:09;;;;;;;9.85;5.12;;;13.70;99.90;;;;;;1936846;72;22269;-91
2022/11/14 11:12:44;;;;;;;7.10;4.58;;;14.00;99.90;;;;;;1969712;71;22580;-91
2022/11/14 11:18:40;;;;;;;14.20;6.35;;;14.30;99.90;;;;;;1946223;72;22174;-92
2022/11/14 11:21:50;;;;;;;8.93;5.40;;;14.40;99.90;;;;;;1905022;74;21102;-90
2022/11/14 11:25:01;;;;;;;6.03;3.72;;;14.50;99.90;;;;;;1926052;74;21180;-89
2022/11/14 11:28:16;;;;;;;8.55;4.12;;;14.70;99.90;;;;;;1904299;75;21149;-90
2022/11/14 11:31:29;;;;;;;7.65;3.35;;;14.90;99.90;;;;;;1904554;75;21176;-89
2022/11/14 11:34:40;;;;;;;5.03;2.70;;;15.00;99.90;;;;;;1905826;74;21045;-91
2022/11/14 11:37:55;;;;;;;8.85;4.42;;;15.10;99.90;;;;;;1905314;75;21111;-91
2022/11/14 11:44:32;;;;;;;6.15;3.37;;;15.40;99.90;;;;;;2044053;69;22095;-93
2022/11/14 11:50:24;;;;;;;5.80;1.80;;;15.80;99.90;;;;;;1934876;72;22213;-93
2022/11/14 11:53:37;;;;;;;2.40;1.17;;;15.90;99.90;;;;;;1904800;75;21098;-92
2022/11/14 11:56:49;;;;;;;6.75;2.05;;;16.10;99.90;;;;;;1871994;75;21130;-91
2022/11/14 12:14:17;;;;;;;2.12;1.17;;;16.30;99.90;;;;;;1957749;73;22591;-92
2022/11/14 12:18:03;;;;;;;3.70;1.22;;;16.60;99.90;;;;;;1918948;74;21165;-91
2022/11/14 12:21:16;;;;;;;1.27;1.02;;;16.80;99.90;;;;;;1889760;75;21086;-91
2022/11/14 12:25:05;;;;;;;4.67;1.40;;;16.90;99.90;;;;;;1886191;76;21047;-92
2022/11/14 12:28:34;;;;;;;2.37;0.98;;;17.10;99.90;;;;;;1906523;75;21098;-90
2022/11/14 12:31:42;;;;;;;;;;;17.20;99.90;;;;;;1920340;75;21208;-91
2022/11/14 12:34:53;;;;;;;1.92;0.70;;;17.30;99.90;;;;;;1895809;75;20174;-90
2022/11/14 12:38:05;;;;;;;1.62;0.72;;;17.40;99.90;;;;;;1895975;75;21191;-90
2022/11/14 12:41:22;;;;;;;1.27;0.78;;;17.50;99.90;;;;;;1906697;75;21082;-91
2022/11/14 12:44:38;;;;;;;3.85;1.00;;;17.60;99.90;;;;;;1896188;75;21047;-90
2022/11/14 12:48:15;;;;;;;2.87;0.80;;;17.70;99.90;;;;;;1885181;75;21110;-90
2022/11/14 12:51:49;;;;;;;2.12;1.07;;;17.60;99.90;;;;;;1906911;75;21102;-90
2022/11/14 12:54:58;;;;;;;1.47;0.80;;;17.60;99.90;;;;;;1894495;75;21133;-90
2022/11/14 12:58:10;;;;;;;1.07;0.68;;;17.60;99.90;;;;;;1895370;75;21109;-89
2022/11/14 13:01:39;;;;;;;1.10;0.78;;;17.60;99.90;;;;;;1909956;75;21145;-90
2022/11/14 13:04:55;;;;;;;1.45;0.80;;;17.60;99.90;;;;;;1896094;75;21065;-90
2022/11/14 13:08:12;;;;;;;9.68;0.72;;;17.50;99.90;;;;;;1885474;76;21134;-90
2022/11/14 13:22:45;;;;;;;4.22;0.80;;;17.50;99.90;;;;;;1906754;75;21683;-90
2022/11/14 13:26:33;;;;;;;1.67;0.72;;;17.50;99.90;;;;;;1896856;75;21098;-89
2022/11/14 13:29:50;;;;;;;1.98;0.80;;;17.50;99.90;;;;;;1884696;76;21187;-89
2022/11/14 13:32:59;;;;;;;3.10;0.80;;;17.50;99.90;;;;;;1884622;75;21602;-90
2022/11/14 13:36:13;;;;;;;2.52;0.72;;;17.50;99.90;;;;;;1884245;76;21086;-91
2022/11/14 13:39:28;;;;;;;1.25;0.75;;;17.50;99.90;;;;;;1903523;75;21056;-89
2022/11/14 13:42:47;;;;;;;3.35;0.93;;;17.50;99.90;;;;;;1903310;75;21103;-90
2022/11/14 13:46:03;;;;;;;2.65;0.78;;;17.50;99.90;;;;;;1884457;76;21136;-90
2022/11/14 13:49:22;;;;;;;2.00;0.98;;;17.50;99.90;;;;;;1905271;75;21479;-90
2022/11/14 13:52:34;;;;;;;0.90;0.70;;;17.50;99.90;;;;;;1916171;75;21566;-89
2022/11/14 13:56:05;;;;;;;0.85;0.70;;;17.60;99.90;;;;;;1895059;75;21061;-89
2022/11/14 13:59:37;;;;;;;1.62;0.70;;;17.60;99.90;;;;;;1883941;76;21104;-89
2022/11/14 14:06:36;;;;;;;1.82;0.60;;;17.60;99.90;;;;;;1992782;71;22234;-91
2022/11/14 14:09:49;;;;;;;2.72;0.60;;;17.80;99.80;;;;;;2034445;70;21143;-90
2022/11/14 14:13:09;;;;;;;1.47;0.80;;;17.90;99.20;;;;;;2009605;70;21068;-89
2022/11/14 14:16:24;;;;;;;2.47;0.70;;;17.90;98.90;;;;;;2032102;70;21477;-89
2022/11/14 14:19:40;;;;;;;1.90;0.88;;;17.80;98.60;;;;;;1995539;72;21157;-90
2022/11/14 14:22:54;;;;;;;1.37;0.75;;;17.80;99.10;;;;;;1995766;72;21541;-90
2022/11/14 14:26:08;;;;;;;1.30;0.80;;;17.90;98.60;;;;;;2011092;70;21030;-90
2022/11/14 14:29:24;;;;;;;1.95;0.57;;;18.00;98.60;;;;;;2011052;70;21147;-89
2022/11/14 14:32:34;;;;;;;1.45;0.60;;;18.00;98.10;;;;;;2011827;70;21127;-89
2022/11/14 14:35:52;;;;;;;2.25;0.65;;;18.00;98.60;;;;;;2017909;70;21092;-90
2022/11/14 14:39:16;;;;;;;0.98;0.60;;;17.90;97.60;;;;;;2010159;70;21077;-90
2022/11/14 14:42:26;;;;;;;1.40;0.60;;;17.80;97.70;;;;;;2014675;70;21061;-90
2022/11/14 14:45:43;;;;;;;1.80;0.70;;;17.90;97.80;;;;;;1995218;70;21163;-89
2022/11/14 14:48:53;;;;;;;2.42;0.70;;;17.80;96.90;;;;;;2011241;70;21141;-89
2022/11/14 14:52:04;;;;;;;2.15;0.70;;;17.80;97.00;;;;;;1995261;72;21111;-90
2022/11/14 14:55:23;;;;;;;1.57;0.90;;;17.80;97.00;;;;;;1995247;72;21084;-90
2022/11/14 14:58:34;;;;;;;2.62;0.53;;;17.70;96.50;;;;;;1995876;72;21110;-90
2022/11/14 15:01:44;;;;;;;0.70;0.60;;;17.70;96.50;;;;;;2008785;70;21021;-90
2022/11/14 15:04:54;;;;;;;3.15;1.25;;;17.70;96.70;;;;;;1996083;72;21029;-90
2022/11/14 15:08:05;;;;;;;0.70;0.70;;;17.50;97.60;;;;;;2031999;70;21023;-91
2022/11/14 15:11:16;;;;;;;1.42;0.70;;;17.40;97.70;;;;;;1995472;70;21101;-90
2022/11/14 15:14:29;;;;;;;5.70;0.90;;;17.40;97.50;;;;;;1995563;72;21081;-89
2022/11/14 15:17:39;;;;;;;1.50;0.50;;;17.40;97.30;;;;;;2005977;70;21085;-89
2022/11/14 15:21:10;;;;;;;0.80;0.60;;;17.30;97.50;;;;;;1996733;70;21083;-92
2022/11/14 15:24:22;;;;;;;0.98;0.70;;;17.30;96.70;;;;;;2007900;70;21073;-91
2022/11/14 15:27:33;;;;;;;2.70;0.80;;;17.30;96.40;;;;;;2007716;70;21076;-90
2022/11/14 15:30:44;;;;;;;2.58;0.90;;;17.30;96.40;;;;;;2020095;70;21190;-91
2022/11/14 15:34:05;;;;;;;1.45;0.90;;;17.20;97.20;;;;;;1994772;72;21126;-90
2022/11/14 15:37:23;;;;;;;1.50;1.02;;;17.10;97.30;;;;;;1995609;72;21057;-92
2022/11/14 15:40:35;;;;;;;1.92;0.82;;;17.10;97.40;;;;;;1995568;72;21080;-89
2022/11/14 15:43:53;;;;;;;1.90;1.00;;;17.10;97.10;;;;;;1994717;72;21088;-91
2022/11/14 15:47:03;;;;;;;1.62;1.05;;;17.10;97.40;;;;;;2007527;70;21066;-91
2022/11/14 15:50:31;;;;;;;1.98;0.70;;;17.00;97.60;;;;;;1994557;72;21065;-89
2022/11/14 15:53:43;;;;;;;1.50;0.70;;;17.00;96.90;;;;;;1994463;72;21141;-91
2022/11/14 15:56:56;;;;;;;1.77;1.20;;;17.00;97.20;;;;;;2009054;70;21110;-91
2022/11/14 16:00:10;;;;;;;1.15;0.88;;;16.90;97.40;;;;;;2017441;70;21112;-91
2022/11/14 16:03:21;;;;;;;2.20;1.02;;;16.80;98.10;;;;;;1994244;71;21126;-90
2022/11/14 16:06:32;;;;;;;2.17;1.60;;;16.60;99.00;;;;;;1994687;71;21183;-90
2022/11/14 16:09:41;;;;;;;2.70;1.20;;;16.50;99.90;;;;;;1995002;72;21098;-90
2022/11/14 16:12:51;;;;;;;4.58;1.50;;;16.30;99.90;;;;;;2006640;70;21073;-90
2022/11/14 16:16:01;;;;;;;3.72;1.47;;;16.20;99.90;;;;;;1995393;70;21103;-91
2022/11/14 16:19:14;;;;;;;2.45;1.30;;;16.20;99.90;;;;;;2019388;70;21139;-90
2022/11/14 16:22:23;;;;;;;1.70;1.12;;;16.10;99.90;;;;;;2027959;70;21146;-90
2022/11/14 16:25:32;;;;;;;4.03;1.22;;;16.20;99.90;;;;;;2006283;70;21061;-90
2022/11/14 16:28:43;;;;;;;2.83;1.37;;;16.20;99.90;;;;;;2000897;70;21097;-90
2022/11/14 16:31:59;;;;;;;4.17;1.40;;;16.10;99.90;;;;;;2019532;70;21073;-90
2022/11/14 16:35:30;;;;;;;4.33;1.70;;;16.10;99.90;;;;;;1999504;70;21119;-89
2022/11/14 16:42:25;;;;;;;2.52;1.80;;;16.00;99.90;;;;;;2006577;70;21062;-89
2022/11/14 16:45:42;;;;;;;3.70;1.70;;;15.90;99.90;;;;;;2014410;70;21093;-91
2022/11/14 16:48:57;;;;;;;2.52;1.57;;;16.00;99.90;;;;;;1994613;72;21101;-91
2022/11/14 16:52:11;;;;;;;4.17;1.70;;;15.90;99.90;;;;;;2010937;70;21069;-90
2022/11/14 16:55:35;;;;;;;2.55;1.65;;;15.80;99.90;;;;;;2011685;70;21098;-91
2022/11/14 16:58:50;;;;;;;3.95;1.45;;;15.80;99.90;;;;;;2010915;70;21205;-90
2022/11/14 17:02:02;;;;;;;2.45;1.42;;;15.80;99.90;;;;;;2013502;70;21030;-90
2022/11/14 17:05:23;;;;;;;3.90;1.92;;;15.70;99.90;;;;;;1994430;72;21053;-90
2022/11/14 17:08:37;;;;;;;4.17;2.15;;;15.70;99.90;;;;;;2014710;70;21110;-90
2022/11/14 17:11:49;;;;;;;2.98;1.65;;;15.60;99.90;;;;;;2014921;70;21163;-90
2022/11/14 17:14:58;;;;;;;3.42;1.32;;;15.70;99.90;;;;;;2012036;70;21139;-90
2022/11/14 17:18:19;;;;;;;2.77;1.00;;;15.70;99.90;;;;;;1994493;72;21069;-91
2022/11/14 17:21:31;;;;;;;1.80;0.98;;;15.70;99.90;;;;;;2014209;70;21093;-89
2022/11/14 17:24:41;;;;;;;1.45;1.00;;;15.90;99.90;;;;;;1973492;72;21093;-90
2022/11/14 17:31:24;;;;;;;3.42;2.15;;;16.00;99.90;;;;;;2015983;70;21074;-90
2022/11/14 17:34:33;;;;;;;2.67;1.42;;;16.00;99.90;;;;;;2010594;70;21088;-91
2022/11/14 17:37:45;;;;;;;1.98;1.60;;;15.90;99.90;;;;;;2014782;70;21038;-90
2022/11/14 17:41:04;;;;;;;2.37;1.60;;;15.90;99.90;;;;;;1995220;72;21021;-90
2022/11/14 17:44:25;;;;;;;3.52;1.80;;;15.80;99.90;;;;;;2014269;70;21084;-89
2022/11/14 17:47:37;;;;;;;2.35;1.45;;;15.80;99.90;;;;;;2015835;70;21076;-89
2022/11/14 17:50:50;;;;;;;5.03;2.30;;;15.80;99.90;;;;;;2014851;70;21438;-90
2022/11/14 17:54:15;;;;;;;4.95;2.05;;;15.70;99.90;;;;;;2015162;70;21517;-91
2022/11/14 17:57:44;;;;;;;2.52;1.50;;;15.60;99.90;;;;;;2017460;70;21124;-89
2022/11/14 18:00:57;;;;;;;3.27;2.20;;;15.60;99.90;;;;;;1996328;72;21075;-90
2022/11/14 18:04:10;;;;;;;3.02;2.05;;;15.70;99.90;;;;;;1999685;70;21063;-89
2022/11/14 18:07:37;;;;;;;3.25;2.40;;;15.50;99.90;;;;;;2029682;70;21166;-90
2022/11/14 18:11:00;;;;;;;4.33;2.17;;;15.40;99.90;;;;;;2007583;70;21061;-89
2022/11/14 18:14:32;;;;;;;2.90;2.02;;;15.50;99.90;;;;;;2013327;70;21073;-90
2022/11/14 18:17:45;;;;;;;4.80;2.20;;;15.40;99.90;;;;;;2026869;70;21136;-89
2022/11/14 18:21:14;;;;;;;6.08;2.50;;;15.40;99.90;;;;;;2037473;70;21081;-90
2022/11/14 18:24:25;;;;;;;5.03;3.10;;;15.40;99.90;;;;;;2038747;70;21605;-91
2022/11/14 18:27:36;;;;;;;4.90;3.15;;;15.30;99.90;;;;;;1954578;72;21545;-90
2022/11/14 18:31:14;;;;;;;5.80;4.12;;;15.20;99.90;;;;;;2014685;70;21150;-90
2022/11/14 18:34:36;;;;;;;7.62;4.67;;;15.00;99.90;;;;;;2023009;70;21061;-91
2022/11/14 18:37:50;;;;;;;6.53;4.30;;;14.60;99.90;;;;;;2016139;70;21551;-90
2022/11/14 18:41:16;;;;;;;6.20;4.30;;;14.40;99.90;;;;;;2025449;70;21095;-91
2022/11/14 18:44:43;;;;;;;5.85;3.85;;;14.20;99.90;;;;;;2025835;70;21137;-90
2022/11/14 18:48:03;;;;;;;4.85;4.08;;;14.10;99.90;;;;;;2031179;70;21123;-91
2022/11/14 18:51:15;;;;;;;6.95;4.22;;;14.10;99.90;;;;;;2009622;70;21158;-90
2022/11/14 18:54:44;;;;;;;8.18;3.95;;;14.00;99.90;;;;;;2026977;70;21030;-90
2022/11/14 18:58:03;;;;;;;6.40;4.37;;;13.90;99.90;;;;;;2033224;70;21146;-90
2022/11/14 19:01:17;;;;;;;4.70;3.40;;;13.90;99.90;;;;;;2030177;70;21064;-90
2022/11/14 19:04:27;;;;;;;4.97;3.80;;;13.90;99.90;;;;;;2025942;70;21096;-90
2022/11/14 19:07:44;;;;;;;5.72;3.70;;;13.80;99.90;;;;;;1984532;70;21093;-90
2022/11/14 19:12:16;;;;;;;5.55;3.90;;;13.80;99.90;;;;;;1993335;70;21186;-90
2022/11/14 19:17:52;;;;;;;4.80;3.83;;;13.70;99.90;;;;;;2009655;70;21571;-91
2022/11/14 19:21:17;;;;;;;6.45;3.95;;;13.60;99.90;;;;;;2008359;70;21127;-90
2022/11/14 19:24:29;;;;;;;6.42;4.28;;;13.40;99.90;;;;;;2009945;70;21123;-91
2022/11/14 19:27:42;;;;;;;6.20;4.45;;;13.50;99.90;;;;;;2017210;70;21065;-90
2022/11/14 19:30:58;;;;;;;6.33;4.30;;;13.50;99.90;;;;;;2007982;69;21134;-91
2022/11/14 19:34:10;;;;;;;7.42;5.70;;;13.50;99.90;;;;;;2008909;70;21125;-91
2022/11/14 19:37:22;;;;;;;6.30;4.60;;;13.60;99.90;;;;;;2016026;71;21034;-91
2022/11/14 19:40:33;;;;;;;6.22;4.20;;;13.50;99.90;;;;;;2007407;70;21166;-91
2022/11/14 19:43:47;;;;;;;4.22;2.65;;;13.60;99.90;;;;;;1992011;70;21074;-90
2022/11/14 19:47:04;;;;;;;4.05;2.00;;;13.60;99.90;;;;;;2019597;71;21181;-91
2022/11/14 19:50:14;;;;;;;2.25;1.40;;;13.60;99.90;;;;;;2007289;70;21117;-92
2022/11/14 19:53:30;;;;;;;3.05;1.85;;;13.70;99.90;;;;;;2013054;70;21104;-91
2022/11/14 19:56:44;;;;;;;3.00;1.75;;;13.70;99.90;;;;;;2021375;70;21102;-93
2022/11/14 19:59:58;;;;;;;1.62;1.20;;;13.60;99.90;;;;;;2003535;69;21093;-91
2022/11/14 20:03:14;;;;;;;2.42;1.47;;;13.70;99.90;;;;;;2003653;70;21133;-91
2022/11/14 20:06:28;;;;;;;2.70;1.67;;;13.70;99.90;;;;;;2010780;70;21049;-92
2022/11/14 20:09:44;;;;;;;2.50;1.60;;;13.60;99.90;;;;;;2018556;70;21094;-91
2022/11/14 20:15:35;;;;;;;3.37;2.27;;;13.50;99.90;;;;;;1938507;72;22201;-89